Bisbee Douglas International Airport
KDUG : now visible

Airfield :











YOU CAN JOIN US ON...

 
LOGIN :

Register | Disclaimer

   EN    FR    IT 

 









Legend :    VFR   Marginal VFR   IFR   Intensive IFR   Very Intensive IFR
Visi :
Ceiling :
>= 8 km
>= 3000ft
5 to 8 km
1000 to 3000 ft
1500m to 5 km
500 to 1000 ft
800 to 1500m
200 to 500 ft
< 800m
< 200 ft
Symbols :   Thunderstorms  Fog  Heavy snow  Heavy precipitations  Wind > 20 kt






- Airport Elevation : 4154 ft


KDUG - Bisbee Douglas International

CURRENT METAR :
  • 081856Z AUTO 19009KT 10SM BKN080 BKN095 21/03 A3010 RMK AO2 SLP145 T02110028

EXPIRED METARs :
  • 081756Z AUTO 19014G23KT 10SM SCT085 22/02 A3011 RMK AO2 PK WND 15026/1716 SLP148 T02170022 10222 20056 58001
  • 081656Z AUTO 15015G20KT 10SM CLR 21/01 A3012 RMK AO2 SLP149 T02110011

TAF KDUG
Valid from the 08 at 18:00 until the 09 at 18:00 UTC


081720Z 0818/0918 19016G25KT P6SM SCT080 SCT250
FM082000 21022G31KT P6SM SCT080 BKN250
FM090300 25011KT P6SM FEW080 BKN250
FM090900 30007KT P6SM FEW080 SCT250



MET'MAP, your aeronautical weather chart ! - Copyright ORBIFLY December 2007 - Disclaimer

ORBIFLY MET'MAP TEAM :

Programming & Development : Alexandra Zaïnal
Concept & original design : Baudouin d'Aumeries
Assistance for programming : Marc-Olivier Méhu
Technical & hardware support : Manuel Goepfert

Contact : metmap@orbifly.com




SOURCES & CREDITS :

   NOAA       Earth
Advisory